sensor_id;sensor_type;location;lat;lon;timestamp;P1;durP1;ratioP1;P2;durP2;ratioP2
13432;SDS011;6789;47.678;9.158;2023-08-17T00:03:08;4.25;;;2.90;;
13432;SDS011;6789;47.678;9.158;2023-08-17T00:08:00;4.45;;;3.10;;
13432;SDS011;6789;47.678;9.158;2023-08-17T00:12:53;3.75;;;3.05;;
13432;SDS011;6789;47.678;9.158;2023-08-17T00:17:45;5.25;;;3.47;;
13432;SDS011;6789;47.678;9.158;2023-08-17T00:22:37;4.85;;;3.30;;
13432;SDS011;6789;47.678;9.158;2023-08-17T00:27:28;3.20;;;2.90;;
13432;SDS011;6789;47.678;9.158;2023-08-17T00:32:20;3.75;;;3.38;;
13432;SDS011;6789;47.678;9.158;2023-08-17T00:37:12;5.50;;;3.53;;
13432;SDS011;6789;47.678;9.158;2023-08-17T00:42:04;3.67;;;3.38;;
13432;SDS011;6789;47.678;9.158;2023-08-17T00:46:55;4.57;;;3.55;;
13432;SDS011;6789;47.678;9.158;2023-08-17T00:51:47;6.65;;;3.33;;
13432;SDS011;6789;47.678;9.158;2023-08-17T00:56:40;5.13;;;3.75;;
13432;SDS011;6789;47.678;9.158;2023-08-17T01:01:32;5.38;;;3.13;;
13432;SDS011;6789;47.678;9.158;2023-08-17T01:06:24;4.82;;;3.22;;
13432;SDS011;6789;47.678;9.158;2023-08-17T01:11:20;3.88;;;3.20;;
13432;SDS011;6789;47.678;9.158;2023-08-17T01:16:38;5.07;;;3.53;;
13432;SDS011;6789;47.678;9.158;2023-08-17T01:21:41;4.72;;;3.30;;
13432;SDS011;6789;47.678;9.158;2023-08-17T01:26:41;4.57;;;3.50;;
13432;SDS011;6789;47.678;9.158;2023-08-17T01:37:09;3.75;;;3.28;;
13432;SDS011;6789;47.678;9.158;2023-08-17T01:42:04;3.42;;;3.10;;
13432;SDS011;6789;47.678;9.158;2023-08-17T01:46:58;3.45;;;3.08;;
13432;SDS011;6789;47.678;9.158;2023-08-17T01:51:50;4.32;;;3.30;;
13432;SDS011;6789;47.678;9.158;2023-08-17T01:56:59;6.15;;;3.70;;
13432;SDS011;6789;47.678;9.158;2023-08-17T02:01:51;4.38;;;3.22;;
13432;SDS011;6789;47.678;9.158;2023-08-17T02:06:43;5.10;;;3.47;;
13432;SDS011;6789;47.678;9.158;2023-08-17T02:11:35;6.25;;;3.78;;
13432;SDS011;6789;47.678;9.158;2023-08-17T02:16:26;5.35;;;3.60;;
13432;SDS011;6789;47.678;9.158;2023-08-17T02:21:18;5.30;;;4.22;;
13432;SDS011;6789;47.678;9.158;2023-08-17T02:26:10;5.40;;;4.18;;
13432;SDS011;6789;47.678;9.158;2023-08-17T02:31:02;5.30;;;3.90;;
13432;SDS011;6789;47.678;9.158;2023-08-17T02:35:54;6.45;;;3.83;;
13432;SDS011;6789;47.678;9.158;2023-08-17T02:40:46;6.10;;;3.95;;
13432;SDS011;6789;47.678;9.158;2023-08-17T02:45:40;4.57;;;3.75;;
13432;SDS011;6789;47.678;9.158;2023-08-17T02:50:31;4.50;;;3.50;;
13432;SDS011;6789;47.678;9.158;2023-08-17T02:55:23;4.70;;;3.90;;
13432;SDS011;6789;47.678;9.158;2023-08-17T03:00:15;6.47;;;4.57;;
13432;SDS011;6789;47.678;9.158;2023-08-17T03:05:07;7.07;;;3.78;;
13432;SDS011;6789;47.678;9.158;2023-08-17T03:09:59;4.30;;;3.90;;
13432;SDS011;6789;47.678;9.158;2023-08-17T03:14:50;5.03;;;3.92;;
13432;SDS011;6789;47.678;9.158;2023-08-17T03:19:43;5.55;;;4.20;;
13432;SDS011;6789;47.678;9.158;2023-08-17T03:24:34;6.28;;;4.53;;
13432;SDS011;6789;47.678;9.158;2023-08-17T03:29:26;7.28;;;4.35;;
13432;SDS011;6789;47.678;9.158;2023-08-17T03:34:18;5.30;;;4.20;;
13432;SDS011;6789;47.678;9.158;2023-08-17T03:39:10;6.47;;;4.70;;
13432;SDS011;6789;47.678;9.158;2023-08-17T03:44:02;4.53;;;3.88;;
13432;SDS011;6789;47.678;9.158;2023-08-17T03:48:57;8.40;;;5.20;;
13432;SDS011;6789;47.678;9.158;2023-08-17T03:53:48;6.57;;;4.75;;
13432;SDS011;6789;47.678;9.158;2023-08-17T03:58:40;6.15;;;4.63;;
13432;SDS011;6789;47.678;9.158;2023-08-17T04:03:47;5.68;;;4.22;;
13432;SDS011;6789;47.678;9.158;2023-08-17T04:08:39;5.55;;;4.30;;
13432;SDS011;6789;47.678;9.158;2023-08-17T04:13:31;6.28;;;4.78;;
13432;SDS011;6789;47.678;9.158;2023-08-17T04:18:23;6.15;;;4.93;;
13432;SDS011;6789;47.678;9.158;2023-08-17T04:23:15;6.20;;;5.00;;
13432;SDS011;6789;47.678;9.158;2023-08-17T04:28:07;7.32;;;5.07;;
13432;SDS011;6789;47.678;9.158;2023-08-17T04:32:58;7.57;;;4.80;;
13432;SDS011;6789;47.678;9.158;2023-08-17T04:37:50;8.95;;;4.85;;
13432;SDS011;6789;47.678;9.158;2023-08-17T04:42:43;5.03;;;4.53;;
13432;SDS011;6789;47.678;9.158;2023-08-17T04:47:35;4.88;;;4.40;;
13432;SDS011;6789;47.678;9.158;2023-08-17T04:52:27;6.30;;;4.28;;
13432;SDS011;6789;47.678;9.158;2023-08-17T04:57:18;6.45;;;4.47;;
13432;SDS011;6789;47.678;9.158;2023-08-17T05:02:10;5.32;;;4.10;;
13432;SDS011;6789;47.678;9.158;2023-08-17T05:07:02;7.03;;;4.00;;
13432;SDS011;6789;47.678;9.158;2023-08-17T05:11:54;9.32;;;4.65;;
13432;SDS011;6789;47.678;9.158;2023-08-17T05:17:01;5.45;;;4.03;;
13432;SDS011;6789;47.678;9.158;2023-08-17T05:21:52;8.32;;;3.88;;
13432;SDS011;6789;47.678;9.158;2023-08-17T05:26:45;6.50;;;4.38;;
13432;SDS011;6789;47.678;9.158;2023-08-17T05:31:37;7.63;;;4.60;;
13432;SDS011;6789;47.678;9.158;2023-08-17T05:36:32;6.55;;;4.10;;
13432;SDS011;6789;47.678;9.158;2023-08-17T05:41:24;5.93;;;4.20;;
13432;SDS011;6789;47.678;9.158;2023-08-17T05:46:31;9.80;;;4.28;;
13432;SDS011;6789;47.678;9.158;2023-08-17T05:51:24;5.22;;;4.30;;
13432;SDS011;6789;47.678;9.158;2023-08-17T05:56:17;3.90;;;3.58;;
13432;SDS011;6789;47.678;9.158;2023-08-17T06:01:09;5.30;;;3.80;;
13432;SDS011;6789;47.678;9.158;2023-08-17T06:06:03;4.45;;;3.90;;
13432;SDS011;6789;47.678;9.158;2023-08-17T06:10:56;4.50;;;3.55;;
13432;SDS011;6789;47.678;9.158;2023-08-17T06:15:49;5.78;;;4.10;;
13432;SDS011;6789;47.678;9.158;2023-08-17T06:20:41;5.75;;;4.63;;
13432;SDS011;6789;47.678;9.158;2023-08-17T06:25:46;5.63;;;4.40;;
13432;SDS011;6789;47.678;9.158;2023-08-17T06:30:41;6.13;;;4.40;;
13432;SDS011;6789;47.678;9.158;2023-08-17T06:35:58;4.22;;;3.83;;
13432;SDS011;6789;47.678;9.158;2023-08-17T06:40:53;5.03;;;3.45;;
13432;SDS011;6789;47.678;9.158;2023-08-17T06:52:02;6.20;;;3.97;;
13432;SDS011;6789;47.678;9.158;2023-08-17T06:58:04;3.97;;;3.55;;
13432;SDS011;6789;47.678;9.158;2023-08-17T07:09:53;6.63;;;4.03;;
13432;SDS011;6789;47.678;9.158;2023-08-17T07:15:39;4.72;;;4.22;;
13432;SDS011;6789;47.678;9.158;2023-08-17T07:21:31;5.30;;;4.22;;
13432;SDS011;6789;47.678;9.158;2023-08-17T07:26:22;5.00;;;4.00;;
13432;SDS011;6789;47.678;9.158;2023-08-17T07:31:49;8.50;;;4.63;;
13432;SDS011;6789;47.678;9.158;2023-08-17T07:36:41;4.75;;;3.78;;
13432;SDS011;6789;47.678;9.158;2023-08-17T07:41:33;5.32;;;4.47;;
13432;SDS011;6789;47.678;9.158;2023-08-17T07:46:42;6.40;;;3.95;;
13432;SDS011;6789;47.678;9.158;2023-08-17T07:52:08;7.05;;;3.97;;
13432;SDS011;6789;47.678;9.158;2023-08-17T07:57:00;7.15;;;4.30;;
13432;SDS011;6789;47.678;9.158;2023-08-17T08:07:14;4.60;;;3.63;;
13432;SDS011;6789;47.678;9.158;2023-08-17T08:12:06;7.60;;;3.83;;
13432;SDS011;6789;47.678;9.158;2023-08-17T08:17:13;6.28;;;4.22;;
13432;SDS011;6789;47.678;9.158;2023-08-17T08:22:29;5.32;;;3.80;;
13432;SDS011;6789;47.678;9.158;2023-08-17T08:27:36;5.45;;;3.83;;
13432;SDS011;6789;47.678;9.158;2023-08-17T08:33:19;4.65;;;3.58;;
13432;SDS011;6789;47.678;9.158;2023-08-17T08:44:12;6.32;;;3.88;;
13432;SDS011;6789;47.678;9.158;2023-08-17T08:50:05;9.77;;;4.40;;
13432;SDS011;6789;47.678;9.158;2023-08-17T08:55:57;7.15;;;4.72;;
13432;SDS011;6789;47.678;9.158;2023-08-17T09:06:52;5.55;;;4.43;;
13432;SDS011;6789;47.678;9.158;2023-08-17T09:11:46;5.60;;;3.92;;
13432;SDS011;6789;47.678;9.158;2023-08-17T09:16:38;6.85;;;3.97;;
13432;SDS011;6789;47.678;9.158;2023-08-17T09:21:31;3.08;;;2.80;;
13432;SDS011;6789;47.678;9.158;2023-08-17T09:27:11;4.50;;;3.60;;
13432;SDS011;6789;47.678;9.158;2023-08-17T09:33:20;3.53;;;2.90;;
13432;SDS011;6789;47.678;9.158;2023-08-17T09:38:41;4.75;;;3.53;;
13432;SDS011;6789;47.678;9.158;2023-08-17T09:44:18;5.20;;;3.50;;
13432;SDS011;6789;47.678;9.158;2023-08-17T09:49:25;5.45;;;3.80;;
13432;SDS011;6789;47.678;9.158;2023-08-17T09:54:59;5.50;;;3.90;;
13432;SDS011;6789;47.678;9.158;2023-08-17T10:00:51;6.22;;;3.92;;
13432;SDS011;6789;47.678;9.158;2023-08-17T10:05:44;4.05;;;3.58;;
13432;SDS011;6789;47.678;9.158;2023-08-17T10:10:46;4.55;;;3.67;;
13432;SDS011;6789;47.678;9.158;2023-08-17T10:16:11;4.70;;;3.50;;
13432;SDS011;6789;47.678;9.158;2023-08-17T10:21:54;4.43;;;3.20;;
13432;SDS011;6789;47.678;9.158;2023-08-17T10:27:30;3.58;;;2.97;;
13432;SDS011;6789;47.678;9.158;2023-08-17T10:32:40;5.65;;;3.30;;
13432;SDS011;6789;47.678;9.158;2023-08-17T10:37:47;5.60;;;3.08;;
13432;SDS011;6789;47.678;9.158;2023-08-17T10:42:56;3.30;;;3.03;;
13432;SDS011;6789;47.678;9.158;2023-08-17T10:58:16;3.20;;;2.95;;
13432;SDS011;6789;47.678;9.158;2023-08-17T11:03:25;4.20;;;3.28;;
13432;SDS011;6789;47.678;9.158;2023-08-17T11:14:57;4.28;;;3.35;;
13432;SDS011;6789;47.678;9.158;2023-08-17T11:20:40;5.07;;;3.20;;
13432;SDS011;6789;47.678;9.158;2023-08-17T11:44:41;3.33;;;3.03;;
13432;SDS011;6789;47.678;9.158;2023-08-17T11:49:49;4.05;;;3.05;;
13432;SDS011;6789;47.678;9.158;2023-08-17T11:54:43;3.83;;;3.30;;
13432;SDS011;6789;47.678;9.158;2023-08-17T12:06:50;9.20;;;3.60;;
13432;SDS011;6789;47.678;9.158;2023-08-17T12:22:37;3.75;;;3.33;;
13432;SDS011;6789;47.678;9.158;2023-08-17T12:28:39;4.80;;;3.33;;
13432;SDS011;6789;47.678;9.158;2023-08-17T12:35:31;6.10;;;4.40;;
13432;SDS011;6789;47.678;9.158;2023-08-17T12:46:06;3.85;;;3.30;;
13432;SDS011;6789;47.678;9.158;2023-08-17T13:29:29;4.18;;;2.97;;
13432;SDS011;6789;47.678;9.158;2023-08-17T13:53:37;5.03;;;2.47;;
13432;SDS011;6789;47.678;9.158;2023-08-17T13:58:50;5.50;;;2.50;;
13432;SDS011;6789;47.678;9.158;2023-08-17T14:04:17;4.80;;;2.40;;
13432;SDS011;6789;47.678;9.158;2023-08-17T14:09:33;6.10;;;2.90;;
13432;SDS011;6789;47.678;9.158;2023-08-17T14:14:39;5.22;;;2.55;;
13432;SDS011;6789;47.678;9.158;2023-08-17T14:19:32;7.05;;;2.58;;
13432;SDS011;6789;47.678;9.158;2023-08-17T14:29:50;4.40;;;2.88;;
13432;SDS011;6789;47.678;9.158;2023-08-17T14:34:42;5.38;;;2.38;;
13432;SDS011;6789;47.678;9.158;2023-08-17T14:39:49;5.05;;;2.70;;
13432;SDS011;6789;47.678;9.158;2023-08-17T14:45:12;5.95;;;2.40;;
13432;SDS011;6789;47.678;9.158;2023-08-17T14:50:35;5.80;;;2.83;;
13432;SDS011;6789;47.678;9.158;2023-08-17T14:55:42;5.38;;;2.58;;
13432;SDS011;6789;47.678;9.158;2023-08-17T15:01:00;8.20;;;3.00;;
13432;SDS011;6789;47.678;9.158;2023-08-17T15:06:08;7.20;;;2.50;;
13432;SDS011;6789;47.678;9.158;2023-08-17T15:11:41;7.25;;;2.92;;
13432;SDS011;6789;47.678;9.158;2023-08-17T15:16:33;3.72;;;2.88;;
13432;SDS011;6789;47.678;9.158;2023-08-17T15:21:39;4.82;;;3.00;;
13432;SDS011;6789;47.678;9.158;2023-08-17T15:26:42;4.88;;;3.72;;
13432;SDS011;6789;47.678;9.158;2023-08-17T15:31:49;6.43;;;3.80;;
13432;SDS011;6789;47.678;9.158;2023-08-17T15:37:06;5.93;;;3.92;;
13432;SDS011;6789;47.678;9.158;2023-08-17T15:42:18;6.13;;;3.65;;
13432;SDS011;6789;47.678;9.158;2023-08-17T15:47:34;4.97;;;3.83;;
13432;SDS011;6789;47.678;9.158;2023-08-17T15:52:43;4.10;;;3.70;;
13432;SDS011;6789;47.678;9.158;2023-08-17T15:57:51;6.30;;;3.83;;
13432;SDS011;6789;47.678;9.158;2023-08-17T16:02:57;6.22;;;4.00;;
13432;SDS011;6789;47.678;9.158;2023-08-17T16:08:13;4.60;;;3.72;;
13432;SDS011;6789;47.678;9.158;2023-08-17T16:13:05;4.97;;;3.45;;
13432;SDS011;6789;47.678;9.158;2023-08-17T16:18:12;4.82;;;4.10;;
13432;SDS011;6789;47.678;9.158;2023-08-17T16:23:20;6.65;;;4.15;;
13432;SDS011;6789;47.678;9.158;2023-08-17T16:33:33;5.20;;;3.60;;
13432;SDS011;6789;47.678;9.158;2023-08-17T16:38:51;4.85;;;3.33;;
13432;SDS011;6789;47.678;9.158;2023-08-17T16:44:14;4.68;;;3.25;;
13432;SDS011;6789;47.678;9.158;2023-08-17T16:49:31;3.83;;;2.10;;
13432;SDS011;6789;47.678;9.158;2023-08-17T16:54:52;5.72;;;2.22;;
13432;SDS011;6789;47.678;9.158;2023-08-17T17:00:00;3.75;;;1.85;;
13432;SDS011;6789;47.678;9.158;2023-08-17T17:10:53;3.15;;;1.58;;
13432;SDS011;6789;47.678;9.158;2023-08-17T17:16:02;3.53;;;1.50;;
13432;SDS011;6789;47.678;9.158;2023-08-17T17:21:27;2.58;;;1.50;;
13432;SDS011;6789;47.678;9.158;2023-08-17T17:26:37;4.53;;;1.60;;
13432;SDS011;6789;47.678;9.158;2023-08-17T17:31:57;3.75;;;1.60;;
13432;SDS011;6789;47.678;9.158;2023-08-17T17:37:25;2.15;;;1.70;;
13432;SDS011;6789;47.678;9.158;2023-08-17T17:42:38;4.15;;;1.40;;
13432;SDS011;6789;47.678;9.158;2023-08-17T17:47:55;3.10;;;2.13;;
13432;SDS011;6789;47.678;9.158;2023-08-17T17:53:11;4.57;;;2.08;;
13432;SDS011;6789;47.678;9.158;2023-08-17T17:58:22;2.78;;;2.03;;
13432;SDS011;6789;47.678;9.158;2023-08-17T18:03:59;17.40;;;2.90;;
13432;SDS011;6789;47.678;9.158;2023-08-17T18:09:19;8.30;;;2.40;;
13432;SDS011;6789;47.678;9.158;2023-08-17T18:14:30;6.32;;;2.17;;
13432;SDS011;6789;47.678;9.158;2023-08-17T18:19:37;3.58;;;2.15;;
13432;SDS011;6789;47.678;9.158;2023-08-17T18:24:55;2.95;;;2.10;;
13432;SDS011;6789;47.678;9.158;2023-08-17T18:30:01;5.13;;;1.90;;
13432;SDS011;6789;47.678;9.158;2023-08-17T18:35:46;8.63;;;2.30;;
13432;SDS011;6789;47.678;9.158;2023-08-17T18:40:54;4.07;;;2.30;;
13432;SDS011;6789;47.678;9.158;2023-08-17T18:46:16;5.13;;;2.40;;
13432;SDS011;6789;47.678;9.158;2023-08-17T18:51:36;7.28;;;2.35;;
13432;SDS011;6789;47.678;9.158;2023-08-17T18:56:42;3.70;;;2.30;;
13432;SDS011;6789;47.678;9.158;2023-08-17T19:01:48;2.97;;;2.00;;
13432;SDS011;6789;47.678;9.158;2023-08-17T19:06:48;5.25;;;2.05;;
13432;SDS011;6789;47.678;9.158;2023-08-17T19:11:48;2.83;;;2.42;;
13432;SDS011;6789;47.678;9.158;2023-08-17T19:16:44;3.15;;;2.00;;
13432;SDS011;6789;47.678;9.158;2023-08-17T19:21:50;9.13;;;2.53;;
13432;SDS011;6789;47.678;9.158;2023-08-17T19:26:58;3.17;;;2.20;;
13432;SDS011;6789;47.678;9.158;2023-08-17T19:31:51;4.75;;;2.30;;
13432;SDS011;6789;47.678;9.158;2023-08-17T19:36:57;2.70;;;2.13;;
13432;SDS011;6789;47.678;9.158;2023-08-17T19:41:58;3.58;;;2.22;;
13432;SDS011;6789;47.678;9.158;2023-08-17T19:47:02;4.80;;;2.53;;
13432;SDS011;6789;47.678;9.158;2023-08-17T19:51:58;3.53;;;2.63;;
13432;SDS011;6789;47.678;9.158;2023-08-17T19:56:54;4.53;;;2.20;;
13432;SDS011;6789;47.678;9.158;2023-08-17T20:02:01;3.38;;;2.10;;
13432;SDS011;6789;47.678;9.158;2023-08-17T20:07:07;5.18;;;2.33;;
13432;SDS011;6789;47.678;9.158;2023-08-17T20:12:18;3.55;;;2.40;;
13432;SDS011;6789;47.678;9.158;2023-08-17T20:17:24;3.38;;;2.00;;
13432;SDS011;6789;47.678;9.158;2023-08-17T20:22:30;2.33;;;1.95;;
13432;SDS011;6789;47.678;9.158;2023-08-17T20:27:41;2.42;;;2.17;;
13432;SDS011;6789;47.678;9.158;2023-08-17T20:32:48;4.00;;;2.40;;
13432;SDS011;6789;47.678;9.158;2023-08-17T20:37:55;4.68;;;1.90;;
13432;SDS011;6789;47.678;9.158;2023-08-17T20:43:01;2.78;;;1.75;;
13432;SDS011;6789;47.678;9.158;2023-08-17T20:48:07;3.97;;;2.03;;
13432;SDS011;6789;47.678;9.158;2023-08-17T20:53:07;1.90;;;1.77;;
13432;SDS011;6789;47.678;9.158;2023-08-17T20:58:00;3.15;;;2.10;;
13432;SDS011;6789;47.678;9.158;2023-08-17T21:03:07;3.53;;;2.35;;
13432;SDS011;6789;47.678;9.158;2023-08-17T21:08:09;5.15;;;2.00;;
13432;SDS011;6789;47.678;9.158;2023-08-17T21:13:35;3.15;;;2.20;;
13432;SDS011;6789;47.678;9.158;2023-08-17T21:18:36;7.47;;;2.20;;
13432;SDS011;6789;47.678;9.158;2023-08-17T21:23:31;3.55;;;2.17;;
13432;SDS011;6789;47.678;9.158;2023-08-17T21:28:27;3.13;;;2.00;;
13432;SDS011;6789;47.678;9.158;2023-08-17T21:33:19;3.85;;;2.20;;
13432;SDS011;6789;47.678;9.158;2023-08-17T21:38:25;3.50;;;2.00;;
13432;SDS011;6789;47.678;9.158;2023-08-17T21:43:18;2.95;;;2.00;;
13432;SDS011;6789;47.678;9.158;2023-08-17T21:48:09;3.58;;;2.53;;
13432;SDS011;6789;47.678;9.158;2023-08-17T21:53:01;2.33;;;2.13;;
13432;SDS011;6789;47.678;9.158;2023-08-17T21:57:53;2.33;;;2.00;;
13432;SDS011;6789;47.678;9.158;2023-08-17T22:18:49;2.55;;;1.90;;
13432;SDS011;6789;47.678;9.158;2023-08-17T22:23:42;2.53;;;2.15;;
13432;SDS011;6789;47.678;9.158;2023-08-17T22:28:33;2.55;;;1.95;;
13432;SDS011;6789;47.678;9.158;2023-08-17T22:33:25;3.92;;;2.20;;
13432;SDS011;6789;47.678;9.158;2023-08-17T22:43:24;3.90;;;2.10;;
13432;SDS011;6789;47.678;9.158;2023-08-17T22:48:15;3.10;;;2.20;;
13432;SDS011;6789;47.678;9.158;2023-08-17T22:53:07;4.93;;;2.25;;
13432;SDS011;6789;47.678;9.158;2023-08-17T22:57:59;4.85;;;2.33;;
13432;SDS011;6789;47.678;9.158;2023-08-17T23:02:51;2.78;;;2.45;;
13432;SDS011;6789;47.678;9.158;2023-08-17T23:07:43;3.75;;;1.98;;
13432;SDS011;6789;47.678;9.158;2023-08-17T23:12:35;3.17;;;2.15;;
13432;SDS011;6789;47.678;9.158;2023-08-17T23:17:27;2.75;;;1.90;;
13432;SDS011;6789;47.678;9.158;2023-08-17T23:22:19;2.67;;;2.00;;
13432;SDS011;6789;47.678;9.158;2023-08-17T23:27:10;2.22;;;2.00;;
13432;SDS011;6789;47.678;9.158;2023-08-17T23:32:16;2.97;;;2.10;;
13432;SDS011;6789;47.678;9.158;2023-08-17T23:37:18;3.08;;;2.08;;
13432;SDS011;6789;47.678;9.158;2023-08-17T23:42:10;2.53;;;2.15;;
13432;SDS011;6789;47.678;9.158;2023-08-17T23:47:02;3.30;;;2.30;;
13432;SDS011;6789;47.678;9.158;2023-08-17T23:51:54;3.08;;;2.15;;
13432;SDS011;6789;47.678;9.158;2023-08-17T23:56:46;3.78;;;1.92;;
